createdAt,value
2022-12-27T00:00:40.276Z,32.05
2022-12-27T00:01:36.925Z,27.83
2022-12-27T00:02:33.557Z,36.85
2022-12-27T00:03:30.704Z,33.45
2022-12-27T00:04:27.809Z,35.08
2022-12-27T00:05:24.596Z,33.42
2022-12-27T00:06:23.806Z,30.20
2022-12-27T00:07:20.428Z,38.95
2022-12-27T00:08:17.072Z,34.17
2022-12-27T00:09:13.742Z,39.33
2022-12-27T00:10:11.648Z,35.53
2022-12-27T00:11:11.723Z,36.55
2022-12-27T00:12:09.000Z,42.03
2022-12-27T00:13:05.775Z,38.10
2022-12-27T00:14:04.939Z,39.20
2022-12-27T00:15:01.526Z,38.80
2022-12-27T00:16:07.776Z,33.03
2022-12-27T00:17:04.473Z,32.15
2022-12-27T00:18:01.060Z,26.15
2022-12-27T00:18:58.216Z,27.75
2022-12-27T00:19:54.977Z,27.98
2022-12-27T00:20:58.217Z,33.50
2022-12-27T00:21:54.831Z,29.63
2022-12-27T00:22:51.501Z,44.00
2022-12-27T00:23:51.870Z,69.30
2022-12-27T00:24:48.602Z,45.40
2022-12-27T00:25:45.153Z,41.17
2022-12-27T00:26:41.904Z,66.57
2022-12-27T00:27:39.101Z,47.33
2022-12-27T00:28:36.125Z,45.75
2022-12-27T00:29:32.854Z,47.78
2022-12-27T00:30:29.489Z,42.75
2022-12-27T00:31:28.323Z,47.67
2022-12-27T00:32:24.948Z,61.05
2022-12-27T00:33:21.545Z,58.20
2022-12-27T00:34:18.380Z,58.75
2022-12-27T00:35:15.154Z,54.95
2022-12-27T00:36:15.202Z,40.58
2022-12-27T00:37:11.841Z,37.33
2022-12-27T00:38:08.445Z,38.65
2022-12-27T00:39:05.633Z,34.03
2022-12-27T00:40:04.502Z,41.95
2022-12-27T00:41:02.118Z,39.65
2022-12-27T00:41:58.855Z,39.47
2022-12-27T00:42:55.424Z,40.33
2022-12-27T00:43:52.031Z,34.53
2022-12-27T00:44:48.616Z,36.63
2022-12-27T00:45:45.411Z,37.28
2022-12-27T00:46:42.070Z,39.35
2022-12-27T00:47:38.730Z,31.90
2022-12-27T00:48:35.774Z,40.25
2022-12-27T00:49:32.364Z,44.63
2022-12-27T00:50:28.927Z,47.42
2022-12-27T00:51:26.757Z,37.95
2022-12-27T00:52:23.345Z,46.55
2022-12-27T00:53:19.923Z,40.30
2022-12-27T00:54:16.699Z,55.25
2022-12-27T00:55:13.317Z,45.55
2022-12-27T00:56:19.386Z,42.03
2022-12-27T00:57:15.947Z,41.75
2022-12-27T00:58:13.185Z,39.97
2022-12-27T00:59:11.648Z,42.42
2022-12-27T01:00:10.765Z,41.55
2022-12-27T01:01:09.696Z,46.40
2022-12-27T01:02:06.327Z,34.67
2022-12-27T01:03:03.034Z,41.03
2022-12-27T01:03:59.935Z,36.97
2022-12-27T01:04:57.473Z,43.40
2022-12-27T01:05:54.266Z,47.55
2022-12-27T01:06:50.934Z,41.60
2022-12-27T01:07:47.727Z,40.40
2022-12-27T01:08:45.675Z,38.50
2022-12-27T01:09:42.324Z,34.40
2022-12-27T01:10:41.000Z,32.78
2022-12-27T01:11:37.658Z,33.30
2022-12-27T01:12:35.702Z,31.77
2022-12-27T01:13:33.089Z,31.42
2022-12-27T01:14:29.752Z,26.92
2022-12-27T01:15:26.345Z,27.23
2022-12-27T01:16:24.733Z,25.08
2022-12-27T01:17:21.355Z,28.50
2022-12-27T01:18:18.062Z,33.70
2022-12-27T01:19:14.951Z,34.33
2022-12-27T01:20:11.557Z,34.95
2022-12-27T01:21:09.848Z,36.22
2022-12-27T01:22:06.728Z,37.65
2022-12-27T01:23:03.411Z,41.45
2022-12-27T01:24:00.092Z,37.15
2022-12-27T01:24:56.719Z,42.03
2022-12-27T01:26:05.165Z,39.00
2022-12-27T01:27:01.805Z,47.30
2022-12-27T01:27:58.432Z,41.80
2022-12-27T01:28:55.125Z,39.08
2022-12-27T01:29:51.775Z,37.10
2022-12-27T01:30:48.392Z,29.33
2022-12-27T01:31:45.462Z,39.60
2022-12-27T01:32:42.087Z,37.85
2022-12-27T01:33:39.319Z,35.53
2022-12-27T01:34:35.964Z,40.58
2022-12-27T01:35:32.618Z,36.72
2022-12-27T01:36:30.884Z,36.40
2022-12-27T01:37:29.240Z,35.85
2022-12-27T01:38:25.886Z,34.17
2022-12-27T01:39:22.527Z,31.48
2022-12-27T01:40:19.234Z,35.83
2022-12-27T01:41:39.116Z,30.70
2022-12-27T01:42:55.560Z,29.42
2022-12-27T01:43:52.179Z,33.75
2022-12-27T01:44:56.914Z,34.25
2022-12-27T01:45:53.659Z,30.98
2022-12-27T01:46:50.549Z,36.40
2022-12-27T01:48:11.507Z,41.38
2022-12-27T01:49:11.612Z,43.47
2022-12-27T01:50:23.852Z,33.08
2022-12-27T01:51:21.105Z,38.60
2022-12-27T01:52:17.680Z,43.55
2022-12-27T01:53:14.243Z,45.08
2022-12-27T01:54:10.857Z,48.03
2022-12-27T01:55:18.269Z,42.40
2022-12-27T01:56:21.251Z,39.60
2022-12-27T01:57:17.889Z,41.65
2022-12-27T01:58:40.518Z,40.00
2022-12-27T01:59:38.028Z,34.65
2022-12-27T02:00:35.189Z,26.92
2022-12-27T02:01:40.410Z,37.38
2022-12-27T02:02:38.253Z,31.02
2022-12-27T02:03:46.128Z,38.80
2022-12-27T02:04:43.564Z,39.20
2022-12-27T02:05:42.411Z,32.97
2022-12-27T02:06:40.639Z,36.83
2022-12-27T02:08:00.828Z,37.33
2022-12-27T02:09:29.063Z,33.92
2022-12-27T02:10:27.991Z,35.47
2022-12-27T02:11:48.284Z,42.45
2022-12-27T02:12:44.947Z,43.10
2022-12-27T02:13:46.316Z,48.65
2022-12-27T02:14:49.141Z,46.53
2022-12-27T02:15:45.870Z,44.17
2022-12-27T02:16:42.538Z,42.17
2022-12-27T02:17:39.209Z,43.70
2022-12-27T02:18:35.834Z,39.03
2022-12-27T02:19:41.460Z,42.33
2022-12-27T02:21:19.248Z,39.55
2022-12-27T02:22:30.996Z,36.50
2022-12-27T02:24:06.844Z,36.47
2022-12-27T02:25:33.694Z,36.55
2022-12-27T02:26:42.715Z,24.73
2022-12-27T02:28:01.002Z,39.97
2022-12-27T02:29:24.637Z,36.78
2022-12-27T02:31:29.605Z,34.42
2022-12-27T02:32:52.037Z,27.95
2022-12-27T02:33:52.082Z,30.33
2022-12-27T02:35:18.725Z,26.63
2022-12-27T02:36:22.618Z,40.70
2022-12-27T02:37:21.791Z,40.88
2022-12-27T02:38:23.795Z,42.83
2022-12-27T02:39:21.393Z,39.92
2022-12-27T02:40:40.632Z,43.85
2022-12-27T02:41:55.983Z,45.78
2022-12-27T02:43:11.868Z,50.88
2022-12-27T02:44:27.373Z,43.45
2022-12-27T02:45:48.137Z,48.42
2022-12-27T02:47:04.026Z,44.05
2022-12-27T02:48:20.225Z,39.58
2022-12-27T02:49:47.240Z,44.58
2022-12-27T02:51:47.875Z,40.72
2022-12-27T02:53:05.910Z,36.42
2022-12-27T02:54:08.339Z,37.10
2022-12-27T02:56:31.698Z,34.92
2022-12-27T02:57:37.116Z,33.97
2022-12-27T02:58:55.356Z,32.97
2022-12-27T03:00:25.626Z,39.58
2022-12-27T03:01:55.872Z,40.97
2022-12-27T03:03:28.757Z,35.65
2022-12-27T03:04:45.124Z,49.97
2022-12-27T03:06:24.126Z,42.30
2022-12-27T03:07:38.891Z,37.70
2022-12-27T03:08:47.823Z,39.65
2022-12-27T03:10:26.568Z,39.08
2022-12-27T03:11:46.264Z,41.13
2022-12-27T03:13:20.085Z,37.63
2022-12-27T03:14:47.222Z,33.40
2022-12-27T03:16:08.874Z,39.47
2022-12-27T03:17:25.702Z,47.08
2022-12-27T03:18:49.483Z,45.38
2022-12-27T03:20:12.060Z,42.78
2022-12-27T03:21:28.459Z,48.45
2022-12-27T03:22:47.364Z,80.28
2022-12-27T03:24:04.622Z,103.22
2022-12-27T03:25:22.143Z,68.57
2022-12-27T03:26:19.827Z,53.35
2022-12-27T03:27:31.678Z,48.25
2022-12-27T03:28:50.181Z,51.83
2022-12-27T03:30:12.289Z,57.25
2022-12-27T03:31:47.650Z,77.78
2022-12-27T03:33:09.020Z,56.63
2022-12-27T03:34:35.816Z,122.85
2022-12-27T03:35:40.415Z,75.63
2022-12-27T03:36:55.936Z,136.32
2022-12-27T03:38:04.357Z,133.98
2022-12-27T03:39:15.376Z,71.43
2022-12-27T03:40:30.982Z,65.47
2022-12-27T03:41:52.414Z,34.00
2022-12-27T03:43:14.013Z,21.45
2022-12-27T03:44:24.548Z,13.07
2022-12-27T03:45:21.870Z,9.07
2022-12-27T03:46:34.186Z,10.65
2022-12-27T03:47:55.510Z,7.88
2022-12-27T03:48:58.145Z,7.97
2022-12-27T03:50:20.969Z,7.68
2022-12-27T03:51:21.413Z,6.60
2022-12-27T03:52:32.956Z,7.05
2022-12-27T03:53:42.704Z,10.48
2022-12-27T03:54:41.631Z,17.95
2022-12-27T03:55:39.110Z,22.33
2022-12-27T03:56:37.223Z,20.98
2022-12-27T03:57:34.127Z,29.83
2022-12-27T03:58:30.861Z,29.08
2022-12-27T03:59:28.369Z,34.65
2022-12-27T04:00:25.000Z,40.75
2022-12-27T04:01:21.742Z,44.38
2022-12-27T04:02:19.320Z,43.88
2022-12-27T04:03:16.273Z,59.03
2022-12-27T04:04:12.967Z,55.80
2022-12-27T04:05:09.634Z,54.33
2022-12-27T04:06:06.780Z,42.80
2022-12-27T04:07:04.484Z,46.67
2022-12-27T04:08:19.320Z,46.85
2022-12-27T04:09:34.499Z,53.30
2022-12-27T04:10:49.990Z,52.97
2022-12-27T04:12:05.306Z,44.78
2022-12-27T04:13:20.320Z,46.83
2022-12-27T04:14:35.317Z,41.42
2022-12-27T04:15:50.857Z,30.92
2022-12-27T04:17:05.821Z,42.67
2022-12-27T04:18:21.357Z,41.22
2022-12-27T04:19:36.613Z,30.95
2022-12-27T04:20:52.071Z,33.40
2022-12-27T04:22:07.254Z,31.67
2022-12-27T04:23:22.417Z,47.90
2022-12-27T04:24:37.722Z,46.10
2022-12-27T04:25:52.800Z,42.53
2022-12-27T04:27:07.636Z,51.22
2022-12-27T04:28:22.767Z,43.10
2022-12-27T04:29:37.796Z,40.78
2022-12-27T04:30:52.886Z,49.78
2022-12-27T04:32:07.939Z,43.83
2022-12-27T04:33:22.905Z,53.53
2022-12-27T04:34:38.361Z,58.20
2022-12-27T04:35:34.937Z,49.55
2022-12-27T04:36:31.505Z,56.22
2022-12-27T04:37:28.067Z,47.13
2022-12-27T04:38:24.629Z,43.80
2022-12-27T04:39:21.291Z,50.92
2022-12-27T04:40:36.577Z,46.60
2022-12-27T04:41:51.880Z,43.42
2022-12-27T04:43:07.024Z,50.38
2022-12-27T04:44:22.467Z,47.22
2022-12-27T04:45:38.008Z,49.17
2022-12-27T04:46:53.349Z,52.53
2022-12-27T04:48:08.554Z,49.47
2022-12-27T04:49:24.079Z,50.38
2022-12-27T04:50:50.781Z,41.63
2022-12-27T04:52:05.573Z,46.13
2022-12-27T04:53:20.443Z,40.35
2022-12-27T04:54:41.491Z,36.65
2022-12-27T04:55:38.127Z,45.38
2022-12-27T04:56:34.851Z,40.60
2022-12-27T04:57:31.438Z,45.88
2022-12-27T04:58:28.313Z,49.50
2022-12-27T04:59:43.546Z,43.85
2022-12-27T05:00:59.010Z,47.60
2022-12-27T05:02:04.742Z,58.60
2022-12-27T05:03:05.411Z,54.67
2022-12-27T05:04:02.063Z,61.00
2022-12-27T05:04:58.930Z,59.38
2022-12-27T05:05:55.840Z,52.92
2022-12-27T05:06:53.428Z,69.25
2022-12-27T05:08:09.227Z,63.67
2022-12-27T05:09:24.596Z,62.67
2022-12-27T05:10:40.539Z,57.13
2022-12-27T05:11:55.648Z,58.78
2022-12-27T05:13:10.909Z,54.42
2022-12-27T05:14:14.538Z,63.88
2022-12-27T05:15:11.175Z,68.57
2022-12-27T05:16:07.824Z,70.35
2022-12-27T05:17:04.434Z,66.55
2022-12-27T05:18:01.064Z,58.67
2022-12-27T05:18:58.325Z,48.30
2022-12-27T05:19:54.858Z,58.25
2022-12-27T05:20:51.551Z,69.75
2022-12-27T05:22:06.848Z,64.40
2022-12-27T05:23:22.229Z,66.28
2022-12-27T05:24:37.359Z,58.00
2022-12-27T05:25:40.047Z,72.47
2022-12-27T05:26:38.448Z,68.72
2022-12-27T05:27:35.064Z,66.97
2022-12-27T05:28:31.716Z,72.07
2022-12-27T05:29:30.192Z,71.35
2022-12-27T05:30:26.773Z,74.50
2022-12-27T05:31:24.790Z,69.95
2022-12-27T05:32:21.364Z,69.03
2022-12-27T05:33:18.066Z,71.30
2022-12-27T05:34:14.663Z,53.65
2022-12-27T05:35:11.231Z,66.15
2022-12-27T05:36:08.516Z,58.30
2022-12-27T05:37:05.017Z,65.07
2022-12-27T05:38:02.386Z,60.35
2022-12-27T05:38:59.602Z,59.92
2022-12-27T05:39:56.166Z,51.50
2022-12-27T05:40:58.345Z,58.58
2022-12-27T05:41:54.893Z,60.03
2022-12-27T05:42:51.906Z,61.17
2022-12-27T05:43:48.584Z,66.50
2022-12-27T05:44:45.186Z,62.38
2022-12-27T05:45:41.748Z,56.63
2022-12-27T05:46:38.368Z,62.92
2022-12-27T05:47:34.974Z,64.68
2022-12-27T05:48:31.620Z,66.10
2022-12-27T05:49:28.240Z,64.20
2022-12-27T05:50:24.910Z,60.28
2022-12-27T05:51:22.031Z,59.88
2022-12-27T05:52:19.211Z,60.85
2022-12-27T05:53:15.968Z,66.90
2022-12-27T05:54:12.587Z,60.63
2022-12-27T05:55:09.639Z,52.92
2022-12-27T05:56:07.006Z,59.60
2022-12-27T05:57:03.668Z,63.63
2022-12-27T05:58:00.282Z,60.97
2022-12-27T05:58:56.891Z,60.55
2022-12-27T05:59:53.496Z,64.15
2022-12-27T06:00:50.136Z,57.47
2022-12-27T06:01:46.914Z,56.33
2022-12-27T06:02:43.846Z,51.67
2022-12-27T06:03:40.749Z,53.47
2022-12-27T06:04:37.356Z,52.53
2022-12-27T06:05:34.041Z,52.40
2022-12-27T06:06:30.592Z,50.22
2022-12-27T06:07:27.277Z,56.72
2022-12-27T06:08:23.897Z,49.88
2022-12-27T06:09:20.515Z,48.63
2022-12-27T06:10:17.180Z,54.45
2022-12-27T06:11:15.985Z,45.92
2022-12-27T06:12:12.658Z,39.80
2022-12-27T06:13:09.253Z,36.88
2022-12-27T06:14:05.870Z,29.23
2022-12-27T06:15:03.115Z,26.73
2022-12-27T06:16:03.911Z,26.00
2022-12-27T06:17:00.558Z,20.85
2022-12-27T06:17:58.903Z,18.58
2022-12-27T06:18:55.563Z,18.05
2022-12-27T06:19:56.829Z,15.93
2022-12-27T06:20:53.920Z,13.48
2022-12-27T06:21:50.581Z,12.98
2022-12-27T06:22:47.697Z,13.75
2022-12-27T06:23:45.331Z,10.52
2022-12-27T06:24:41.870Z,17.83
2022-12-27T06:25:38.569Z,24.80
2022-12-27T06:26:35.238Z,20.13
2022-12-27T06:27:31.864Z,21.27
2022-12-27T06:28:28.445Z,16.33
2022-12-27T06:29:25.741Z,18.38
2022-12-27T06:30:22.411Z,16.65
2022-12-27T06:31:20.527Z,19.58
2022-12-27T06:32:17.885Z,29.17
2022-12-27T06:33:14.455Z,39.38
2022-12-27T06:34:11.397Z,41.05
2022-12-27T06:35:08.684Z,34.35
2022-12-27T06:36:10.415Z,35.75
2022-12-27T06:37:07.035Z,30.75
2022-12-27T06:38:03.637Z,27.13
2022-12-27T06:39:00.226Z,25.10
2022-12-27T06:39:57.363Z,35.08
2022-12-27T06:40:53.945Z,31.23
2022-12-27T06:41:50.894Z,49.05
2022-12-27T06:42:47.468Z,51.28
2022-12-27T06:43:45.802Z,48.72
2022-12-27T06:44:42.432Z,65.97
2022-12-27T06:45:39.574Z,51.92
2022-12-27T06:46:36.619Z,51.13
2022-12-27T06:47:33.360Z,50.72
2022-12-27T06:48:30.861Z,52.92
2022-12-27T06:49:27.556Z,52.00
2022-12-27T06:50:24.195Z,58.38
2022-12-27T06:51:21.482Z,55.03
2022-12-27T06:52:18.058Z,54.90
2022-12-27T06:53:14.597Z,54.47
2022-12-27T06:54:11.199Z,42.58
2022-12-27T06:55:07.974Z,50.97
2022-12-27T06:56:13.233Z,55.00
2022-12-27T06:57:09.815Z,45.35
2022-12-27T06:58:06.474Z,54.22
2022-12-27T06:59:04.751Z,62.30
2022-12-27T07:00:01.395Z,61.38
2022-12-27T07:00:58.056Z,52.90
2022-12-27T07:01:54.883Z,62.95
2022-12-27T07:02:51.765Z,67.20
2022-12-27T07:03:53.011Z,65.85
2022-12-27T07:04:49.678Z,79.90
2022-12-27T07:05:46.373Z,59.13
2022-12-27T07:06:42.965Z,67.30
2022-12-27T07:07:39.581Z,59.38
2022-12-27T07:08:36.482Z,58.35
2022-12-27T07:09:33.061Z,66.05
2022-12-27T07:10:29.904Z,61.53
2022-12-27T07:11:26.625Z,62.85
2022-12-27T07:12:23.224Z,65.43
2022-12-27T07:13:19.809Z,53.28
2022-12-27T07:14:16.448Z,62.83
2022-12-27T07:15:12.989Z,67.47
2022-12-27T07:16:12.447Z,57.97
2022-12-27T07:17:09.171Z,56.28
2022-12-27T07:18:05.821Z,62.95
2022-12-27T07:19:02.402Z,51.55
2022-12-27T07:19:59.118Z,63.50
2022-12-27T07:20:55.681Z,58.20
2022-12-27T07:21:52.367Z,59.92
2022-12-27T07:22:49.053Z,53.00
2022-12-27T07:23:45.695Z,56.03
2022-12-27T07:24:42.302Z,70.40
2022-12-27T07:25:38.917Z,56.40
2022-12-27T07:26:35.541Z,51.75
2022-12-27T07:27:36.514Z,59.78
2022-12-27T07:28:33.308Z,50.80
2022-12-27T07:29:29.925Z,51.67
2022-12-27T07:30:26.680Z,52.90
2022-12-27T07:31:26.541Z,58.88
2022-12-27T07:32:23.315Z,47.38
2022-12-27T07:33:19.875Z,51.03
2022-12-27T07:34:16.647Z,52.92
2022-12-27T07:35:13.393Z,47.70
2022-12-27T07:36:14.507Z,42.88
2022-12-27T07:37:11.153Z,46.60
2022-12-27T07:38:07.698Z,55.92
2022-12-27T07:39:05.435Z,51.22
2022-12-27T07:40:02.334Z,48.63
2022-12-27T07:41:00.214Z,52.10
2022-12-27T07:41:56.867Z,48.28
2022-12-27T07:42:53.493Z,51.33
2022-12-27T07:43:50.288Z,48.70
2022-12-27T07:44:46.900Z,48.60
2022-12-27T07:45:43.572Z,49.15
2022-12-27T07:46:40.204Z,44.58
2022-12-27T07:47:36.794Z,47.15
2022-12-27T07:48:33.444Z,47.53
2022-12-27T07:49:30.025Z,42.65
2022-12-27T07:50:26.644Z,50.45
2022-12-27T07:51:24.501Z,45.05
2022-12-27T07:52:21.105Z,46.90
2022-12-27T07:53:17.683Z,39.75
2022-12-27T07:54:14.320Z,43.15
2022-12-27T07:55:10.931Z,39.13
2022-12-27T07:56:10.831Z,42.10
2022-12-27T07:57:07.494Z,38.67
2022-12-27T07:58:04.203Z,34.33
2022-12-27T07:59:01.965Z,37.65
2022-12-27T07:59:58.603Z,39.38
2022-12-27T08:00:55.304Z,39.38
2022-12-27T08:02:04.225Z,34.45
2022-12-27T08:03:01.118Z,35.85
2022-12-27T08:03:57.760Z,33.88
2022-12-27T08:04:54.360Z,39.25
2022-12-27T08:05:54.390Z,38.60
2022-12-27T08:06:51.061Z,39.90
2022-12-27T08:07:47.726Z,42.85
2022-12-27T08:08:45.250Z,41.75
2022-12-27T08:09:44.939Z,36.88
2022-12-27T08:10:41.584Z,43.72
2022-12-27T08:11:38.158Z,45.47
2022-12-27T08:12:34.732Z,40.47
2022-12-27T08:13:31.328Z,42.47
2022-12-27T08:14:27.960Z,41.20
2022-12-27T08:15:24.626Z,35.03
2022-12-27T08:16:24.213Z,40.70
2022-12-27T08:17:28.082Z,35.88
2022-12-27T08:18:24.800Z,40.60
2022-12-27T08:19:21.381Z,41.67
2022-12-27T08:20:18.050Z,40.17
2022-12-27T08:21:14.930Z,40.75
2022-12-27T08:22:11.530Z,44.95
2022-12-27T08:23:08.090Z,38.30
2022-12-27T08:24:05.086Z,40.53
2022-12-27T08:25:02.117Z,50.00
2022-12-27T08:25:59.339Z,38.97
2022-12-27T08:26:55.897Z,41.15
2022-12-27T08:27:52.521Z,33.25
2022-12-27T08:28:49.209Z,41.42
2022-12-27T08:29:45.805Z,42.83
2022-12-27T08:30:44.375Z,31.42
2022-12-27T08:31:41.013Z,38.65
2022-12-27T08:32:37.608Z,35.72
2022-12-27T08:33:34.252Z,41.40
2022-12-27T08:34:31.029Z,40.60
2022-12-27T08:35:52.118Z,41.25
2022-12-27T08:36:59.531Z,33.53
2022-12-27T08:37:56.611Z,44.60
2022-12-27T08:38:56.601Z,46.42
2022-12-27T08:39:55.439Z,47.28
2022-12-27T08:41:53.782Z,41.67
2022-12-27T08:42:50.367Z,49.75
2022-12-27T08:43:46.962Z,51.08
2022-12-27T08:44:44.149Z,46.35
2022-12-27T08:45:40.882Z,55.22
2022-12-27T08:46:37.711Z,58.40
2022-12-27T08:47:34.335Z,45.42
2022-12-27T08:48:33.626Z,58.38
2022-12-27T08:49:30.574Z,40.88
2022-12-27T08:50:28.150Z,43.05
2022-12-27T08:51:34.299Z,49.95
2022-12-27T08:52:35.509Z,55.80
2022-12-27T08:53:32.169Z,55.25
2022-12-27T08:54:28.747Z,48.58
2022-12-27T08:55:29.489Z,50.22
2022-12-27T08:56:26.403Z,52.47
2022-12-27T08:57:22.994Z,59.78
2022-12-27T08:58:19.568Z,56.33
2022-12-27T08:59:16.636Z,57.05
2022-12-27T09:00:14.037Z,58.60
2022-12-27T09:01:10.896Z,58.70
2022-12-27T09:02:07.716Z,55.00
2022-12-27T09:03:04.485Z,62.08
2022-12-27T09:04:01.100Z,55.78
2022-12-27T09:04:57.693Z,51.38
2022-12-27T09:05:54.257Z,59.38
2022-12-27T09:06:50.869Z,62.63
2022-12-27T09:07:48.158Z,58.95
2022-12-27T09:08:46.833Z,56.88
2022-12-27T09:09:43.545Z,54.35
2022-12-27T09:10:40.177Z,51.92
2022-12-27T09:11:36.952Z,61.65
2022-12-27T09:12:34.524Z,54.53
2022-12-27T09:13:31.981Z,47.78
2022-12-27T09:14:29.189Z,65.22
2022-12-27T09:15:25.774Z,59.95
2022-12-27T09:16:25.062Z,56.97
2022-12-27T09:17:21.751Z,57.50
2022-12-27T09:18:18.298Z,58.78
2022-12-27T09:19:14.932Z,53.63
2022-12-27T09:20:12.453Z,45.85
2022-12-27T09:21:12.275Z,51.05
2022-12-27T09:22:08.961Z,56.30
2022-12-27T09:23:05.486Z,51.10
2022-12-27T09:24:04.340Z,55.25
2022-12-27T09:25:00.967Z,53.30
2022-12-27T09:25:57.515Z,56.20
2022-12-27T09:26:54.187Z,48.13
2022-12-27T09:27:50.772Z,46.80
2022-12-27T09:28:48.698Z,49.78
2022-12-27T09:29:48.467Z,49.38
2022-12-27T09:30:45.314Z,52.25
2022-12-27T09:31:41.918Z,53.90
2022-12-27T09:32:38.488Z,49.63
2022-12-27T09:33:35.152Z,51.60
2022-12-27T09:34:32.104Z,46.42
2022-12-27T09:35:29.060Z,49.30
2022-12-27T09:36:30.028Z,49.97
2022-12-27T09:37:26.602Z,47.65
2022-12-27T09:38:23.357Z,49.97
2022-12-27T09:39:19.961Z,45.33
2022-12-27T09:40:19.849Z,39.95
2022-12-27T09:42:44.421Z,56.88
2022-12-27T09:43:23.964Z,43.50
2022-12-27T09:44:33.073Z,43.15
2022-12-27T09:45:44.098Z,43.78
2022-12-27T09:46:40.925Z,37.33
2022-12-27T09:47:52.408Z,45.50
2022-12-27T09:48:52.005Z,41.88
2022-12-27T09:49:53.584Z,40.95
2022-12-27T09:50:55.557Z,39.33
2022-12-27T09:51:58.199Z,40.63
2022-12-27T09:53:02.112Z,48.45
2022-12-27T09:54:12.215Z,47.75
2022-12-27T09:55:35.253Z,56.55
2022-12-27T09:56:54.599Z,34.22
2022-12-27T09:58:05.785Z,51.55
2022-12-27T09:59:31.929Z,35.40
2022-12-27T10:00:34.408Z,34.88
2022-12-27T10:01:37.303Z,40.97
2022-12-27T10:02:34.999Z,41.72
2022-12-27T10:03:32.654Z,42.78
2022-12-27T10:05:09.842Z,34.47
2022-12-27T10:06:15.650Z,40.92
2022-12-27T10:07:49.660Z,57.85
2022-12-27T10:09:07.882Z,41.40
2022-12-27T10:10:31.799Z,44.08
2022-12-27T10:11:40.163Z,40.38
2022-12-27T10:12:51.209Z,57.25
2022-12-27T10:13:59.213Z,48.90
2022-12-27T10:15:01.846Z,52.85
2022-12-27T10:16:04.320Z,45.55
2022-12-27T10:18:20.271Z,34.63
2022-12-27T10:19:35.925Z,30.65
2022-12-27T10:20:55.472Z,24.08
2022-12-27T10:22:16.342Z,26.88
2022-12-27T10:23:19.589Z,39.25
2022-12-27T10:24:37.789Z,26.80
2022-12-27T10:25:36.149Z,28.02
2022-12-27T10:26:33.237Z,26.20
2022-12-27T10:27:30.809Z,19.10
2022-12-27T10:28:38.817Z,22.50
2022-12-27T10:29:36.679Z,28.55
2022-12-27T10:30:33.263Z,22.40
2022-12-27T10:31:31.730Z,28.75
2022-12-27T10:32:28.432Z,25.35
2022-12-27T10:33:28.740Z,32.58
2022-12-27T10:34:25.459Z,38.70
2022-12-27T10:35:22.671Z,32.45
2022-12-27T10:36:25.956Z,28.77
2022-12-27T10:37:22.745Z,26.10
2022-12-27T10:38:20.510Z,27.08
2022-12-27T10:39:19.448Z,27.38
2022-12-27T10:40:34.611Z,24.77
2022-12-27T10:41:50.260Z,25.05
2022-12-27T10:43:05.577Z,31.20
2022-12-27T10:44:04.544Z,30.77
2022-12-27T10:45:29.324Z,43.22
2022-12-27T10:46:32.976Z,37.42
2022-12-27T10:47:30.180Z,38.10
2022-12-27T10:48:47.445Z,24.90
2022-12-27T10:50:13.107Z,42.45
2022-12-27T10:51:11.912Z,30.00
2022-12-27T10:52:15.811Z,27.17
2022-12-27T10:53:30.163Z,37.13
2022-12-27T10:54:30.527Z,30.33
2022-12-27T10:55:34.400Z,32.72
2022-12-27T10:56:41.523Z,24.80
2022-12-27T10:57:38.086Z,31.92
2022-12-27T10:58:39.030Z,32.40
2022-12-27T10:59:35.832Z,25.10
2022-12-27T11:00:32.581Z,25.35
2022-12-27T11:01:32.471Z,29.65
2022-12-27T11:02:29.357Z,31.35
2022-12-27T11:03:28.913Z,32.50
2022-12-27T11:04:26.133Z,28.80
2022-12-27T11:05:25.943Z,32.60
2022-12-27T11:06:25.777Z,39.03
2022-12-27T11:07:22.348Z,37.70
2022-12-27T11:08:20.844Z,29.67
2022-12-27T11:09:20.740Z,36.88
2022-12-27T11:10:21.727Z,38.38
2022-12-27T11:11:18.278Z,37.00
2022-12-27T11:12:28.627Z,40.00
2022-12-27T11:13:25.204Z,32.20
2022-12-27T11:14:22.458Z,35.47
2022-12-27T11:15:20.224Z,44.25
2022-12-27T11:16:31.555Z,35.42
2022-12-27T11:17:46.534Z,36.15
2022-12-27T11:18:50.322Z,30.90
2022-12-27T11:19:47.889Z,32.78
2022-12-27T11:20:56.869Z,35.95
2022-12-27T11:21:55.465Z,36.35
2022-12-27T11:23:13.706Z,32.53
2022-12-27T11:24:15.625Z,34.53
2022-12-27T11:25:15.373Z,29.95
2022-12-27T11:26:20.397Z,24.23
2022-12-27T11:27:24.527Z,31.35
2022-12-27T11:28:33.969Z,34.60
2022-12-27T11:29:32.903Z,35.72
2022-12-27T11:30:31.856Z,33.40
2022-12-27T11:31:32.710Z,26.17
2022-12-27T11:32:29.389Z,33.25
2022-12-27T11:33:37.581Z,30.73
2022-12-27T11:34:37.635Z,33.05
2022-12-27T11:35:44.944Z,30.25
2022-12-27T11:36:45.706Z,36.00
2022-12-27T11:37:42.423Z,35.17
2022-12-27T11:38:42.688Z,30.52
2022-12-27T11:39:39.240Z,36.22
2022-12-27T11:40:36.190Z,34.97
2022-12-27T11:41:40.320Z,31.63
2022-12-27T11:42:49.977Z,35.45
2022-12-27T11:44:09.611Z,29.85
2022-12-27T11:45:18.462Z,33.53
2022-12-27T11:46:30.728Z,40.42
2022-12-27T11:47:57.606Z,37.50
2022-12-27T11:49:01.747Z,37.28
2022-12-27T11:50:05.919Z,39.90
2022-12-27T11:51:17.572Z,44.38
2022-12-27T11:52:33.778Z,40.42
2022-12-27T11:53:39.221Z,41.67
2022-12-27T11:55:14.232Z,39.30
2022-12-27T11:56:26.415Z,40.28
2022-12-27T11:57:56.845Z,44.05
2022-12-27T11:59:29.300Z,36.97
2022-12-27T12:00:37.837Z,40.47
2022-12-27T12:02:18.719Z,38.25
2022-12-27T12:04:09.461Z,32.30
2022-12-27T12:05:57.021Z,39.85
2022-12-27T12:06:59.354Z,38.75
2022-12-27T12:08:23.704Z,37.10
2022-12-27T12:09:40.371Z,36.40
2022-12-27T12:10:42.968Z,40.38
2022-12-27T12:11:42.341Z,42.63
2022-12-27T12:12:47.883Z,44.92
2022-12-27T12:14:20.996Z,41.67
2022-12-27T12:15:17.517Z,46.22
2022-12-27T12:17:01.024Z,52.85
2022-12-27T12:18:29.743Z,52.75
2022-12-27T12:19:59.428Z,45.33
2022-12-27T12:21:17.708Z,54.58
2022-12-27T12:22:51.208Z,48.75
2022-12-27T12:23:50.526Z,42.00
2022-12-27T12:25:01.462Z,43.97
2022-12-27T12:26:24.294Z,26.10
2022-12-27T12:27:47.024Z,26.50
2022-12-27T12:29:19.513Z,49.83
2022-12-27T12:30:37.348Z,36.10
2022-12-27T12:31:55.532Z,41.58
2022-12-27T12:33:10.801Z,12.10
2022-12-27T12:34:58.507Z,20.85
2022-12-27T12:36:10.140Z,75.95
2022-12-27T12:37:24.716Z,87.95
2022-12-27T12:38:22.645Z,72.10
2022-12-27T12:39:40.517Z,17.30
2022-12-27T12:41:11.288Z,66.75
2022-12-27T12:42:34.093Z,145.55
2022-12-27T12:43:49.421Z,168.15
2022-12-27T12:45:01.096Z,78.75
2022-12-27T12:46:08.315Z,174.75
2022-12-27T12:47:46.124Z,212.93
2022-12-27T12:48:51.579Z,34.83
2022-12-27T12:50:00.802Z,24.00
2022-12-27T12:51:09.707Z,29.73
2022-12-27T12:52:58.870Z,33.65
2022-12-27T12:54:04.517Z,19.02
2022-12-27T12:55:19.619Z,12.93
2022-12-27T12:56:22.172Z,55.42
2022-12-27T12:58:48.901Z,47.88
2022-12-27T13:00:25.940Z,9.27
2022-12-27T13:01:59.881Z,11.75
2022-12-27T13:03:27.803Z,35.53
2022-12-27T13:04:42.078Z,61.15
2022-12-27T13:05:52.077Z,30.17
2022-12-27T13:07:30.435Z,12.95
2022-12-27T13:08:43.918Z,45.72
2022-12-27T13:10:07.799Z,43.20
2022-12-27T13:11:22.872Z,40.60
2022-12-27T13:12:37.093Z,13.80
2022-12-27T13:14:11.413Z,9.77
2022-12-27T13:16:25.885Z,9.40
2022-12-27T13:17:35.317Z,13.25
2022-12-27T13:18:40.162Z,11.60
2022-12-27T13:20:03.374Z,6.28
2022-12-27T13:21:10.027Z,5.78
2022-12-27T13:22:25.295Z,10.70
2022-12-27T13:23:37.514Z,8.50
2022-12-27T13:24:43.256Z,9.03
2022-12-27T13:26:06.056Z,13.15
2022-12-27T13:27:11.766Z,8.93
2022-12-27T13:28:17.655Z,12.07
2022-12-27T13:29:52.720Z,5.10
2022-12-27T13:30:57.829Z,6.57
2022-12-27T13:32:15.799Z,10.18
2022-12-27T13:33:48.547Z,12.38
2022-12-27T13:35:00.767Z,8.82
2022-12-27T13:36:15.443Z,6.63
2022-12-27T13:37:30.266Z,3.55
2022-12-27T13:38:51.484Z,12.85
2022-12-27T13:40:01.111Z,9.40
2022-12-27T13:41:34.428Z,9.25
2022-12-27T13:42:54.285Z,7.07
2022-12-27T13:44:03.914Z,9.38
2022-12-27T13:45:18.588Z,8.18
2022-12-27T13:46:27.406Z,6.85
2022-12-27T13:47:42.294Z,5.55
2022-12-27T13:49:07.343Z,5.82
2022-12-27T13:50:34.776Z,10.35
2022-12-27T13:51:42.383Z,7.30
2022-12-27T13:52:39.722Z,10.60
2022-12-27T13:54:00.658Z,9.23
2022-12-27T13:55:20.891Z,5.38
2022-12-27T13:58:23.149Z,8.15
2022-12-27T13:59:58.126Z,15.00
2022-12-27T14:01:25.790Z,14.77